Time;durP1;ratioP1;P1;durP2;ratioP2;P2;SDS_P1;SDS_P2;PMS_P1;PMS_P2;Temp;Humidity;BMP_temperature;BMP_pressure;BME280_temperature;BME280_humidity;BME280_pressure;Samples;Min_cycle;Max_cycle;Signal;HPM_P1;HPM_P2
2021/10/23 00:02:26;;;;;;;11.68;3.92;;;;;;;5.88;100.00;102530.25;4954353;28;20054;-74
2021/10/23 00:04:53;;;;;;;10.30;3.63;;;;;;;5.87;100.00;102528.47;4947613;28;20171;-74
2021/10/23 00:07:21;;;;;;;7.60;3.08;;;;;;;5.85;100.00;102536.38;4949878;28;20621;-74
2021/10/23 00:09:50;;;;;;;8.35;3.00;;;;;;;5.84;100.00;102533.69;4951415;28;20047;-74
2021/10/23 00:12:18;;;;;;;14.35;3.42;;;;;;;5.82;100.00;102533.69;4943462;28;20070;-74
2021/10/23 00:14:46;;;;;;;5.80;2.53;;;;;;;5.82;100.00;102531.03;4952418;28;20491;-73
2021/10/23 00:17:14;;;;;;;7.45;3.00;;;;;;;5.84;100.00;102547.88;4954086;28;20578;-74
2021/10/23 00:19:42;;;;;;;6.97;2.90;;;;;;;5.86;100.00;102547.88;4946733;28;20434;-73
2021/10/23 00:22:10;;;;;;;8.70;3.03;;;;;;;5.86;100.00;102547.88;4950302;28;20090;-73
2021/10/23 00:24:38;;;;;;;6.00;2.72;;;;;;;5.86;100.00;102547.88;4947141;28;20043;-73
2021/10/23 00:27:07;;;;;;;9.77;2.88;;;;;;;5.88;100.00;102548.78;4949142;28;20058;-73
2021/10/23 00:29:35;;;;;;;8.32;3.00;;;;;;;5.85;100.00;102544.31;4946954;28;20153;-72
2021/10/23 00:32:03;;;;;;;10.88;4.07;;;;;;;5.93;100.00;102539.16;4950971;28;20058;-73
2021/10/23 00:34:31;;;;;;;10.35;2.90;;;;;;;5.91;100.00;102548.84;4951484;28;20058;-74
2021/10/23 00:36:59;;;;;;;12.85;5.03;;;;;;;5.89;100.00;102545.25;4946245;28;20047;-72
2021/10/23 00:39:27;;;;;;;8.55;3.50;;;;;;;5.87;100.00;102545.22;4947948;28;20062;-69
2021/10/23 00:41:56;;;;;;;7.80;2.60;;;;;;;5.84;100.00;102539.00;4944612;28;20130;-69
2021/10/23 00:44:30;;;;;;;7.63;2.70;;;;;;;5.80;100.00;102538.06;4951829;28;20062;-68
2021/10/23 00:47:01;;;;;;;10.65;2.63;;;;;;;5.76;100.00;102542.44;4948103;28;20055;-69
2021/10/23 00:49:30;;;;;;;12.02;3.47;;;;;;;5.75;100.00;102540.63;4951010;28;20189;-71
2021/10/23 00:51:58;;;;;;;10.55;2.70;;;;;;;5.72;100.00;102537.97;4948226;28;20055;-68
2021/10/23 00:54:27;;;;;;;10.38;3.55;;;;;;;5.70;100.00;102529.09;4940039;28;20138;-73
2021/10/23 00:56:56;;;;;;;10.25;2.70;;;;;;;5.72;100.00;102521.16;4949050;28;20063;-73
2021/10/23 00:59:24;;;;;;;8.65;2.95;;;;;;;5.69;100.00;102532.63;4947895;28;20051;-73
2021/10/23 01:01:54;;;;;;;8.82;2.63;;;;;;;5.67;100.00;102541.41;4950202;28;20133;-73
2021/10/23 01:04:24;;;;;;;7.30;2.47;;;;;;;5.68;100.00;102543.19;4948399;28;20066;-74
2021/10/23 01:06:53;;;;;;;8.60;2.97;;;;;;;5.64;100.00;102546.66;4955032;28;20086;-70
2021/10/23 01:09:21;;;;;;;7.97;2.70;;;;;;;5.61;100.00;102548.38;4952361;28;20070;-74
2021/10/23 01:11:50;;;;;;;9.77;3.25;;;;;;;5.59;100.00;102559.84;4948570;28;20109;-74
2021/10/23 01:14:21;;;;;;;12.05;3.95;;;;;;;5.58;100.00;102558.94;4948257;28;20170;-74
2021/10/23 01:16:51;;;;;;;8.90;2.97;;;;;;;5.55;100.00;102550.94;4951619;28;20083;-74
2021/10/23 01:19:21;;;;;;;16.83;5.88;;;;;;;5.53;100.00;102551.78;4956595;28;20050;-74
2021/10/23 01:21:51;;;;;;;9.18;2.83;;;;;;;5.52;100.00;102552.66;4953518;28;20129;-74
2021/10/23 01:24:20;;;;;;;6.38;2.47;;;;;;;5.46;100.00;102555.19;4957338;28;20133;-73
2021/10/23 01:26:48;;;;;;;10.60;3.65;;;;;;;5.39;100.00;102544.50;4953906;28;20055;-70
2021/10/23 01:29:17;;;;;;;6.45;2.75;;;;;;;5.36;100.00;102540.91;4951582;28;20065;-69
2021/10/23 01:31:48;;;;;;;5.35;2.33;;;;;;;5.37;100.00;102535.63;4953821;28;20318;-68
2021/10/23 01:34:18;;;;;;;8.38;2.50;;;;;;;5.30;100.00;102533.75;4945190;28;20050;-70
2021/10/23 01:36:48;;;;;;;7.15;3.63;;;;;;;5.28;100.00;102540.78;4955708;28;20326;-70
2021/10/23 01:39:18;;;;;;;10.57;3.75;;;;;;;5.28;100.00;102547.81;4953569;28;20057;-75
2021/10/23 01:41:46;;;;;;;10.70;3.30;;;;;;;5.22;100.00;102544.22;4950780;28;20050;-74
2021/10/23 01:44:15;;;;;;;10.13;2.47;;;;;;;5.20;100.00;102535.34;4952915;28;20232;-70
2021/10/23 01:46:44;;;;;;;4.78;2.30;;;;;;;5.15;100.00;102541.44;4950035;28;20443;-70
2021/10/23 01:49:12;;;;;;;12.05;4.82;;;;;;;5.12;100.00;102539.63;4954254;28;20130;-71
2021/10/23 01:51:40;;;;;;;12.45;5.20;;;;;;;5.09;100.00;102536.94;4953414;28;20042;-70
2021/10/23 01:54:10;;;;;;;17.88;5.68;;;;;;;5.09;100.00;102546.63;4941154;28;20043;-69
2021/10/23 01:56:41;;;;;;;10.85;4.47;;;;;;;5.05;100.00;102538.63;4954393;28;20097;-69
2021/10/23 01:59:10;;;;;;;11.98;4.95;;;;;;;5.04;100.00;102539.50;4950047;28;20497;-69
2021/10/23 02:01:38;;;;;;;19.00;6.65;;;;;;;5.01;100.00;102536.78;4952657;28;20074;-70
2021/10/23 02:04:06;;;;;;;10.50;4.30;;;;;;;4.97;100.00;102536.69;4947734;28;20065;-72
2021/10/23 02:06:38;;;;;;;18.52;6.88;;;;;;;4.91;100.00;102544.53;4953612;28;20565;-73
2021/10/23 02:09:06;;;;;;;13.95;6.35;;;;;;;4.84;100.00;102543.53;4951795;28;20133;-72
2021/10/23 02:11:34;;;;;;;12.38;5.45;;;;;;;4.81;100.00;102549.63;4939530;28;20572;-73
2021/10/23 02:14:05;;;;;;;11.55;5.55;;;;;;;4.79;100.00;102540.78;4953987;28;20058;-73
2021/10/23 02:16:33;;;;;;;14.18;5.63;;;;;;;4.77;100.00;102536.34;4947254;28;20089;-72
2021/10/23 02:19:01;;;;;;;10.55;4.93;;;;;;;4.72;100.00;102532.72;4954399;28;20077;-73
2021/10/23 02:21:29;;;;;;;12.80;5.28;;;;;;;4.77;100.00;102531.06;4949844;28;20050;-73
2021/10/23 02:24:01;;;;;;;10.95;3.63;;;;;;;4.71;100.00;102541.50;4955231;28;20672;-69
2021/10/23 02:26:30;;;;;;;8.02;2.85;;;;;;;4.65;100.00;102550.22;4955285;28;20073;-69
2021/10/23 02:29:00;;;;;;;8.00;2.72;;;;;;;4.62;100.00;102542.22;4951274;28;20063;-69
2021/10/23 02:31:32;;;;;;;10.85;2.88;;;;;;;4.62;100.00;102552.81;4952623;28;20066;-69
2021/10/23 02:34:00;;;;;;;7.90;2.70;;;;;;;4.56;100.00;102544.75;4948276;28;20117;-69
2021/10/23 02:36:34;;;;;;;10.88;3.22;;;;;;;4.52;100.00;102548.19;4952622;28;20487;-69
2021/10/23 02:39:02;;;;;;;5.57;2.47;;;;;;;4.46;100.00;102554.22;4950018;28;20051;-69
2021/10/23 02:41:30;;;;;;;12.15;3.40;;;;;;;4.46;100.00;102546.28;4954531;28;20387;-69
2021/10/23 02:43:59;;;;;;;7.18;2.45;;;;;;;4.40;100.00;102539.16;4951285;28;20054;-69
2021/10/23 02:46:27;;;;;;;8.63;2.72;;;;;;;4.38;100.00;102540.00;4950056;28;20050;-69
2021/10/23 02:48:57;;;;;;;10.07;2.45;;;;;;;4.38;100.00;102538.22;4948778;28;20038;-69
2021/10/23 02:51:25;;;;;;;6.80;2.47;;;;;;;4.31;100.00;102541.59;4953073;28;20067;-69
2021/10/23 02:53:54;;;;;;;4.53;2.40;;;;;;;4.27;100.00;102534.44;4948364;28;20055;-69
2021/10/23 02:56:21;;;;;;;8.05;2.88;;;;;;;4.23;100.00;102540.56;4950456;28;20094;-72
2021/10/23 02:58:49;;;;;;;8.10;2.85;;;;;;;4.19;100.00;102546.59;4954100;28;20053;-73
2021/10/23 03:01:18;;;;;;;6.57;2.53;;;;;;;4.16;100.00;102549.22;4950060;28;20100;-73
2021/10/23 03:03:47;;;;;;;5.43;2.40;;;;;;;4.15;100.00;102550.06;4946593;28;20147;-73
2021/10/23 03:06:18;;;;;;;5.22;2.72;;;;;;;4.09;100.00;102554.34;4951935;28;20051;-73
2021/10/23 03:08:46;;;;;;;8.50;2.70;;;;;;;4.07;100.00;102556.06;4948598;28;20498;-73
2021/10/23 03:11:17;;;;;;;6.68;2.58;;;;;;;4.04;100.00;102549.84;4944516;28;20051;-73
2021/10/23 03:13:46;;;;;;;8.70;2.88;;;;;;;4.05;100.00;102554.25;4953538;28;20057;-73
2021/10/23 03:16:14;;;;;;;5.65;2.53;;;;;;;4.00;100.00;102555.88;4948498;28;20097;-73
2021/10/23 03:18:42;;;;;;;7.30;2.40;;;;;;;3.95;100.00;102561.09;4951612;28;20142;-69
2021/10/23 03:21:10;;;;;;;4.63;2.45;;;;;;;3.94;100.00;102569.84;4947411;28;20065;-69
2021/10/23 03:23:39;;;;;;;6.72;2.33;;;;;;;3.92;100.00;102571.56;4952301;28;20143;-69
2021/10/23 03:26:12;;;;;;;4.88;2.40;;;;;;;3.91;100.00;102564.50;4947401;28;20141;-69
2021/10/23 03:28:43;;;;;;;8.35;2.53;;;;;;;3.89;100.00;102568.84;4952634;28;20181;-69
2021/10/23 03:31:11;;;;;;;4.75;2.22;;;;;;;3.87;100.00;102571.47;4951368;28;20058;-69
2021/10/23 03:33:39;;;;;;;4.93;2.30;;;;;;;3.87;100.00;102578.50;4947794;28;20054;-69
2021/10/23 03:36:07;;;;;;;7.45;2.63;;;;;;;3.80;100.00;102573.91;4950176;28;20069;-70
2021/10/23 03:38:35;;;;;;;4.55;2.17;;;;;;;3.78;100.00;102575.63;4947173;28;20063;-69
2021/10/23 03:41:05;;;;;;;8.68;3.15;;;;;;;3.74;100.00;102572.91;4949919;28;20063;-69
2021/10/23 03:43:33;;;;;;;8.50;2.95;;;;;;;3.76;100.00;102579.97;4951724;28;20157;-70
2021/10/23 03:46:01;;;;;;;7.07;2.50;;;;;;;3.67;100.00;102583.31;4946454;28;20057;-70
2021/10/23 03:48:29;;;;;;;11.00;2.80;;;;;;;3.62;100.00;102580.53;4946090;28;20055;-70
2021/10/23 03:50:57;;;;;;;8.60;3.28;;;;;;;3.58;100.00;102578.69;4953096;28;20054;-70
2021/10/23 03:53:25;;;;;;;8.40;2.85;;;;;;;3.57;100.00;102583.94;4945101;28;20055;-70
2021/10/23 03:55:53;;;;;;;9.38;2.72;;;;;;;3.53;100.00;102588.25;4949513;28;20054;-70
2021/10/23 03:58:22;;;;;;;6.50;3.13;;;;;;;3.52;100.00;102591.72;4951633;28;20047;-69
2021/10/23 04:00:49;;;;;;;8.88;2.83;;;;;;;3.45;100.00;102600.34;4945399;28;20207;-70
2021/10/23 04:03:18;;;;;;;8.27;3.05;;;;;;;3.44;100.00;102602.09;4951639;28;20058;-72
2021/10/23 04:05:45;;;;;;;8.20;2.67;;;;;;;3.44;100.00;102603.81;4946147;28;20191;-73
2021/10/23 04:08:13;;;;;;;4.95;2.30;;;;;;;3.42;100.00;102603.78;4952959;28;20061;-73
2021/10/23 04:10:41;;;;;;;4.90;2.30;;;;;;;3.44;100.00;102602.09;4949644;28;20108;-70
2021/10/23 04:13:09;;;;;;;7.45;2.90;;;;;;;3.42;100.00;102601.16;4944318;28;20566;-73
2021/10/23 04:15:38;;;;;;;7.30;2.63;;;;;;;3.47;100.00;102601.28;4951838;28;20086;-72
2021/10/23 04:18:06;;;;;;;8.73;3.05;;;;;;;3.43;100.00;102597.66;4947526;28;20759;-72
2021/10/23 04:20:34;;;;;;;8.40;2.38;;;;;;;3.49;100.00;102603.13;4954468;28;20169;-73
2021/10/23 04:23:02;;;;;;;7.07;3.50;;;;;;;3.52;100.00;102589.09;4947908;28;20213;-72
2021/10/23 04:25:30;;;;;;;9.80;2.72;;;;;;;3.54;100.00;102593.56;4947886;28;20809;-70
2021/10/23 04:27:58;;;;;;;10.07;3.42;;;;;;;3.59;100.00;102590.13;4950225;28;20902;-70
2021/10/23 04:30:26;;;;;;;5.82;3.00;;;;;;;3.61;100.00;102591.06;4946119;28;20169;-70
2021/10/23 04:32:55;;;;;;;8.70;2.72;;;;;;;3.55;100.00;102597.09;4950111;28;20054;-70
2021/10/23 04:35:23;;;;;;;7.10;3.00;;;;;;;3.57;100.00;102586.56;4952125;28;20054;-70
2021/10/23 04:37:51;;;;;;;12.40;4.20;;;;;;;3.74;100.00;102580.81;4950934;28;20043;-71
2021/10/23 04:40:19;;;;;;;10.05;3.78;;;;;;;3.91;100.00;102583.88;4949699;28;20150;-71
2021/10/23 04:42:47;;;;;;;9.45;3.45;;;;;;;3.85;100.00;102589.03;4949864;28;20453;-71
2021/10/23 04:45:15;;;;;;;7.60;3.17;;;;;;;3.83;100.00;102587.19;4951069;28;20420;-71
2021/10/23 04:47:43;;;;;;;11.43;3.58;;;;;;;3.97;100.00;102590.16;4956531;28;20047;-71
2021/10/23 04:50:12;;;;;;;8.35;3.00;;;;;;;3.93;100.00;102590.09;4953010;28;20055;-71
2021/10/23 04:52:39;;;;;;;9.63;3.55;;;;;;;3.93;100.00;102589.19;4950671;28;20086;-70
2021/10/23 04:55:08;;;;;;;10.88;3.17;;;;;;;3.90;100.00;102595.31;4952552;28;20150;-71
2021/10/23 04:57:36;;;;;;;12.40;4.50;;;;;;;3.82;100.00;102606.56;4954153;28;20059;-69
2021/10/23 05:00:04;;;;;;;10.85;3.53;;;;;;;3.84;100.00;102602.19;4948376;28;20484;-70
2021/10/23 05:02:32;;;;;;;8.10;3.13;;;;;;;4.06;100.00;102596.53;4953699;28;20117;-70
2021/10/23 05:05:00;;;;;;;10.85;4.03;;;;;;;4.09;100.00;102593.97;4950839;28;20199;-70
2021/10/23 05:07:29;;;;;;;8.25;3.63;;;;;;;4.12;100.00;102603.75;4956665;28;20059;-70
2021/10/23 05:09:57;;;;;;;9.13;3.35;;;;;;;4.23;100.00;102603.97;4951372;28;20051;-69
2021/10/23 05:12:26;;;;;;;9.55;2.85;;;;;;;4.27;100.00;102608.44;4949602;28;20951;-70
2021/10/23 05:14:54;;;;;;;15.57;4.40;;;;;;;4.40;100.00;102613.16;4951973;28;20147;-70
2021/10/23 05:17:23;;;;;;;9.80;3.60;;;;;;;4.36;100.00;102608.66;4953818;28;20606;-70
2021/10/23 05:19:51;;;;;;;8.38;3.50;;;;;;;4.46;100.00;102615.03;4952531;28;20101;-70
2021/10/23 05:22:19;;;;;;;9.02;3.35;;;;;;;4.41;100.00;102616.69;4953551;28;20049;-70
2021/10/23 05:24:49;;;;;;;11.60;3.15;;;;;;;4.44;100.00;102620.31;4952671;28;20172;-70
2021/10/23 05:27:16;;;;;;;9.50;3.83;;;;;;;4.46;100.00;102625.59;4953155;28;20163;-74
2021/10/23 05:29:44;;;;;;;9.13;3.50;;;;;;;4.54;100.00;102620.50;4948518;28;20086;-73
2021/10/23 05:32:12;;;;;;;15.80;3.67;;;;;;;4.69;100.00;102615.53;4953040;28;20058;-73
2021/10/23 05:34:47;;;;;;;11.93;4.20;;;;;;;4.67;100.00;102617.25;4950885;28;20071;-73
2021/10/23 05:37:16;;;;;;;11.98;3.83;;;;;;;4.74;100.00;102619.16;4950424;28;20511;-73
2021/10/23 05:39:44;;;;;;;9.00;3.38;;;;;;;4.74;100.00;102624.44;4951267;28;20169;-73
2021/10/23 05:42:13;;;;;;;7.43;3.60;;;;;;;4.76;100.00;102620.06;4951745;28;20145;-74
2021/10/23 05:44:41;;;;;;;12.68;4.63;;;;;;;4.84;100.00;102617.59;4954513;28;20130;-73
2021/10/23 05:47:11;;;;;;;9.55;3.45;;;;;;;4.90;100.00;102630.03;4950951;28;20257;-74
2021/10/23 05:49:40;;;;;;;8.18;3.58;;;;;;;4.99;100.00;102625.84;4955695;28;20997;-73
2021/10/23 05:52:09;;;;;;;12.32;4.40;;;;;;;5.04;100.00;102625.94;4944395;28;20054;-73
2021/10/23 05:54:37;;;;;;;11.07;4.07;;;;;;;5.03;100.00;102632.06;4953253;28;20502;-73
2021/10/23 05:57:07;;;;;;;12.55;4.80;;;;;;;5.06;100.00;102632.13;4953791;28;20181;-73
2021/10/23 05:59:41;;;;;;;14.20;5.35;;;;;;;5.07;100.00;102638.31;4949450;28;20122;-73
2021/10/23 06:02:22;;;;;;;9.93;3.90;;;;;;;5.09;100.00;102650.72;4952533;28;20055;-73
2021/10/23 06:04:51;;;;;;;11.82;4.88;;;;;;;5.28;100.00;102646.69;4952031;28;20241;-73
2021/10/23 06:07:23;;;;;;;9.05;4.07;;;;;;;5.37;100.00;102652.13;4954232;28;20133;-74
2021/10/23 06:09:53;;;;;;;12.85;4.97;;;;;;;5.52;100.00;102661.22;4954487;28;20054;-75
2021/10/23 06:12:24;;;;;;;14.18;4.47;;;;;;;5.60;100.00;102662.22;4947401;28;20055;-73
2021/10/23 06:14:56;;;;;;;12.30;4.38;;;;;;;5.61;100.00;102658.72;4953317;28;20077;-75
2021/10/23 06:17:24;;;;;;;12.27;4.13;;;;;;;5.80;100.00;102662.59;4951067;28;20069;-73
2021/10/23 06:19:57;;;;;;;12.93;4.45;;;;;;;5.84;100.00;102664.44;4952231;28;20055;-73
2021/10/23 06:22:25;;;;;;;9.15;4.13;;;;;;;5.89;100.00;102662.75;4948127;28;20070;-73
2021/10/23 06:24:54;;;;;;;12.93;4.13;;;;;;;5.97;100.00;102665.53;4953278;28;20216;-74
2021/10/23 06:27:23;;;;;;;13.05;4.07;;;;;;;5.97;100.00;102668.19;4954201;28;20567;-72
2021/10/23 06:29:51;;;;;;;12.48;4.70;;;;;;;6.06;100.00;102676.31;4953440;28;20055;-73
2021/10/23 06:32:20;;;;;;;12.98;5.25;;;;;;;6.08;100.00;102668.34;4950390;28;20495;-73
2021/10/23 06:34:48;;;;;;;13.82;5.22;;;;;;;6.09;100.00;102675.44;4947570;28;20504;-73
2021/10/23 06:37:19;;;;;;;9.75;4.95;;;;;;;6.12;100.00;102672.84;4949897;28;20178;-74
2021/10/23 06:39:50;;;;;;;12.82;4.45;;;;;;;6.19;100.00;102676.50;4952545;28;20535;-74
2021/10/23 06:42:18;;;;;;;12.45;5.70;;;;;;;6.27;100.00;102672.22;4953014;28;20523;-74
2021/10/23 06:44:46;;;;;;;17.05;5.82;;;;;;;6.40;100.00;102686.50;4955033;28;20683;-71
2021/10/23 06:47:14;;;;;;;15.85;5.72;;;;;;;6.43;100.00;102692.75;4950782;28;20268;-71
2021/10/23 06:49:44;;;;;;;18.58;7.47;;;;;;;6.52;100.00;102695.56;4951323;28;20046;-71
2021/10/23 06:52:12;;;;;;;14.90;6.97;;;;;;;6.58;100.00;102689.44;4941157;28;20054;-72
2021/10/23 06:54:40;;;;;;;16.15;7.90;;;;;;;6.62;100.00;102683.28;4950868;28;20050;-72
2021/10/23 06:57:08;;;;;;;20.65;8.60;;;;;;;6.62;100.00;102680.63;4951012;28;20059;-71
2021/10/23 07:00:04;;;;;;;13.93;6.55;;;;;;;6.71;100.00;102675.47;4949092;28;20509;-71
2021/10/23 07:02:39;;;;;;;17.35;7.55;;;;;;;6.86;100.00;102682.75;4945090;28;20046;-71
2021/10/23 07:05:11;;;;;;;;;;;;;;;7.06;100.00;102690.06;4951339;28;20085;-71
2021/10/23 07:07:39;;;;;;;16.35;6.10;;;;;;;7.09;100.00;102693.63;4949982;28;19926;-71
2021/10/23 07:10:09;;;;;;;20.05;7.45;;;;;;;7.13;100.00;102702.53;4945589;28;20518;-71
2021/10/23 07:12:40;;;;;;;15.07;6.97;;;;;;;7.24;100.00;102697.34;4942046;28;20050;-72
2021/10/23 07:15:09;;;;;;;18.83;7.18;;;;;;;7.24;100.00;102703.56;4950942;28;20050;-71
2021/10/23 07:17:38;;;;;;;21.55;9.50;;;;;;;7.37;100.00;102709.91;4947497;28;20058;-72
2021/10/23 07:20:07;;;;;;;20.10;8.40;;;;;;;7.40;100.00;102714.34;4949319;28;20059;-71
2021/10/23 07:22:37;;;;;;;19.17;8.90;;;;;;;7.43;100.00;102712.59;4947849;28;20059;-72
2021/10/23 07:25:06;;;;;;;22.27;8.85;;;;;;;7.48;100.00;102718.88;4948898;28;20105;-72
2021/10/23 07:27:34;;;;;;;25.58;8.70;;;;;;;7.50;100.00;102721.53;4947482;28;20134;-74
2021/10/23 07:30:03;;;;;;;23.27;9.13;;;;;;;7.53;100.00;102718.91;4949218;28;20653;-74
2021/10/23 07:32:30;;;;;;;21.50;8.43;;;;;;;7.58;100.00;102718.97;4947599;28;20051;-73
2021/10/23 07:34:58;;;;;;;22.33;8.60;;;;;;;7.75;100.00;102712.06;4950448;28;20137;-73
2021/10/23 07:37:26;;;;;;;19.08;8.07;;;;;;;7.79;100.00;102720.94;4946966;28;20949;-75
2021/10/23 07:39:55;;;;;;;18.60;7.97;;;;;;;7.79;100.00;102724.47;4950539;28;20055;-73
2021/10/23 07:42:24;;;;;;;22.00;8.52;;;;;;;7.84;100.00;102728.06;4946488;28;20097;-71
2021/10/23 07:44:52;;;;;;;25.77;9.25;;;;;;;7.91;100.00;102731.69;4947632;28;20145;-73
2021/10/23 07:47:21;;;;;;;22.10;8.55;;;;;;;7.97;100.00;102730.88;4945754;28;20055;-71
2021/10/23 07:49:52;;;;;;;19.58;8.32;;;;;;;7.98;100.00;102728.19;4949046;28;20691;-70
2021/10/23 07:52:20;;;;;;;21.80;9.60;;;;;;;8.01;100.00;102730.88;4940585;28;20107;-71
2021/10/23 07:54:49;;;;;;;19.98;8.50;;;;;;;8.08;100.00;102738.94;4950741;28;20145;-70
2021/10/23 07:57:18;;;;;;;20.70;9.40;;;;;;;8.19;100.00;102747.91;4946511;28;20130;-71
2021/10/23 07:59:46;;;;;;;26.40;10.57;;;;;;;8.27;100.00;102748.81;4945312;28;20058;-70
2021/10/23 08:02:14;;;;;;;22.70;9.35;;;;;;;8.32;100.00;102754.19;4949852;28;20415;-71
2021/10/23 08:04:42;;;;;;;21.95;10.45;;;;;;;8.32;100.00;102754.19;4948876;28;20141;-70
2021/10/23 08:07:10;;;;;;;29.95;12.15;;;;;;;8.37;100.00;102753.34;4944714;28;20062;-71
2021/10/23 08:09:39;;;;;;;22.92;9.70;;;;;;;8.42;100.00;102753.38;4949194;28;20586;-71
2021/10/23 08:12:08;;;;;;;23.60;11.13;;;;;;;8.43;100.00;102756.94;4944628;28;20065;-71
2021/10/23 08:14:38;;;;;;;22.52;9.63;;;;;;;8.43;100.00;102752.53;4945458;28;20582;-71
2021/10/23 08:17:06;;;;;;;28.63;11.32;;;;;;;8.47;100.00;102753.47;4947068;28;20062;-71
2021/10/23 08:19:35;;;;;;;19.90;9.43;;;;;;;8.51;100.00;102752.59;4946760;28;20497;-71
2021/10/23 08:22:04;;;;;;;25.70;10.63;;;;;;;8.52;100.00;102746.41;4948615;28;20487;-71
2021/10/23 08:24:31;;;;;;;22.20;10.73;;;;;;;8.55;100.00;102749.09;4945525;28;20482;-71
2021/10/23 08:26:59;;;;;;;21.50;9.77;;;;;;;8.60;100.00;102753.53;4948352;28;20396;-71
2021/10/23 08:29:28;;;;;;;19.65;9.02;;;;;;;8.64;100.00;102759.78;4947991;28;20499;-71
2021/10/23 08:31:58;;;;;;;22.02;9.45;;;;;;;8.72;100.00;102762.50;4947518;28;20061;-72
2021/10/23 08:34:26;;;;;;;21.27;9.32;;;;;;;8.77;100.00;102772.28;4947585;28;20142;-70
2021/10/23 08:36:54;;;;;;;22.85;10.00;;;;;;;8.80;100.00;102763.41;4952282;28;20055;-70
2021/10/23 08:39:23;;;;;;;23.45;10.88;;;;;;;8.84;100.00;102773.22;4947080;28;20153;-72
2021/10/23 08:41:51;;;;;;;17.52;8.75;;;;;;;8.88;100.00;102774.13;4944069;28;20529;-70
2021/10/23 08:44:23;;;;;;;19.63;9.35;;;;;;;8.94;100.00;102777.72;4951537;28;20061;-70
2021/10/23 08:46:51;;;;;;;20.17;8.25;;;;;;;8.97;100.00;102782.16;4947670;28;20142;-71
2021/10/23 08:49:21;;;;;;;16.50;8.38;;;;;;;9.01;100.00;102783.03;4950455;28;20058;-73
2021/10/23 08:51:50;;;;;;;19.50;8.30;;;;;;;9.03;100.00;102782.19;4950672;28;20065;-72
2021/10/23 08:54:18;;;;;;;16.30;8.93;;;;;;;9.05;100.00;102783.09;4944681;28;20054;-71
2021/10/23 08:56:46;;;;;;;19.13;7.95;;;;;;;9.06;100.00;102792.88;4948557;28;20054;-69
2021/10/23 08:59:14;;;;;;;16.83;8.07;;;;;;;9.08;100.00;102782.22;4949029;28;20400;-70
2021/10/23 09:01:57;;;;;;;17.30;8.23;;;;;;;9.13;100.00;102784.03;4949905;28;20057;-70
2021/10/23 09:04:32;;;;;;;15.75;7.72;;;;;;;9.17;100.00;102782.25;4947393;28;20086;-71
2021/10/23 09:07:08;;;;;;;17.02;8.30;;;;;;;9.18;100.00;102789.38;4951102;28;20066;-71
2021/10/23 09:09:50;;;;;;;17.80;7.85;;;;;;;9.20;100.00;102781.41;4952569;28;20058;-71
2021/10/23 09:12:19;;;;;;;16.50;8.20;;;;;;;9.23;100.00;102784.97;4947916;28;20051;-71
2021/10/23 09:14:48;;;;;;;18.05;8.43;;;;;;;9.26;100.00;102786.72;4942765;28;20077;-71
2021/10/23 09:17:17;;;;;;;17.02;8.75;;;;;;;9.31;100.00;102790.31;4951269;28;20090;-74
2021/10/23 09:19:51;;;;;;;19.35;8.30;;;;;;;9.32;100.00;102789.44;4947952;28;20051;-74
2021/10/23 09:22:27;;;;;;;19.33;7.78;;;;;;;9.34;100.00;102785.00;4947374;28;20058;-73
2021/10/23 09:25:11;;;;;;;22.42;8.00;;;;;;;9.35;100.00;102787.66;4950538;28;20058;-71
2021/10/23 09:27:47;;;;;;;16.02;7.85;;;;;;;9.42;100.00;102787.69;4947280;28;20057;-71
2021/10/23 09:30:18;;;;;;;16.85;8.00;;;;;;;9.46;100.00;102786.81;4955024;28;20480;-72
2021/10/23 09:32:54;;;;;;;18.67;8.60;;;;;;;9.51;100.00;102785.06;4952284;28;20065;-70
2021/10/23 09:35:28;;;;;;;16.15;9.32;;;;;;;9.53;100.00;102786.84;4952464;28;20058;-71
2021/10/23 09:37:58;;;;;;;18.15;9.30;;;;;;;9.58;100.00;102791.31;4953075;28;20058;-71
2021/10/23 09:40:29;;;;;;;20.75;10.23;;;;;;;9.62;100.00;102785.06;4951609;28;20051;-70
2021/10/23 09:43:09;;;;;;;16.85;8.82;;;;;;;9.68;100.00;102791.31;4954388;28;20062;-70
2021/10/23 09:45:38;;;;;;;19.55;9.63;;;;;;;9.71;100.00;102783.34;4950352;28;20592;-70
2021/10/23 09:48:08;;;;;;;17.42;9.23;;;;;;;9.78;100.00;102788.69;4955324;28;20055;-70
2021/10/23 09:50:37;;;;;;;16.40;8.82;;;;;;;9.84;100.00;102789.59;4954463;28;20471;-69
2021/10/23 09:53:08;;;;;;;17.08;8.43;;;;;;;9.90;100.00;102794.94;4947572;28;20584;-69
2021/10/23 09:55:53;;;;;;;15.85;9.55;;;;;;;9.97;100.00;102797.63;4954240;28;20134;-70
2021/10/23 09:58:25;;;;;;;16.58;8.82;;;;;;;9.98;100.00;102791.41;4952453;28;20054;-70
2021/10/23 10:00:57;;;;;;;18.58;9.43;;;;;;;10.03;100.00;102793.19;4953315;28;20062;-70
2021/10/23 10:03:26;;;;;;;17.15;9.52;;;;;;;10.10;100.00;102799.41;4952675;28;20544;-70
2021/10/23 10:05:56;;;;;;;20.65;9.85;;;;;;;10.15;100.00;102788.72;4952739;28;20069;-69
2021/10/23 10:08:25;;;;;;;17.25;9.38;;;;;;;10.16;99.17;102787.84;4947562;28;20365;-70
2021/10/23 10:10:58;;;;;;;17.75;8.93;;;;;;;10.24;100.00;102802.09;4953836;28;20484;-69
2021/10/23 10:13:34;;;;;;;19.42;10.15;;;;;;;10.21;98.62;102799.41;4950706;28;20098;-70
2021/10/23 10:16:03;;;;;;;22.15;10.68;;;;;;;10.27;100.00;102797.66;4949074;28;20082;-69
2021/10/23 10:18:34;;;;;;;24.08;11.73;;;;;;;10.30;99.92;102796.78;4952353;28;20062;-70
2021/10/23 10:21:09;;;;;;;23.00;11.73;;;;;;;10.37;100.00;102808.34;4950527;28;20525;-69
2021/10/23 10:23:39;;;;;;;22.10;12.13;;;;;;;10.34;99.55;102808.38;4953918;28;20775;-69
2021/10/23 10:26:29;;;;;;;20.02;10.57;;;;;;;10.44;100.00;102812.81;4947398;28;20393;-69
2021/10/23 10:29:17;;;;;;;21.45;11.73;;;;;;;10.33;99.76;102812.78;4952955;28;20054;-68
2021/10/23 10:31:53;;;;;;;22.38;11.63;;;;;;;10.42;100.00;102807.47;4953711;28;20054;-68
2021/10/23 10:35:01;;;;;;;24.17;12.45;;;;;;;10.40;100.00;102813.69;4950174;28;20952;-68
2021/10/23 10:43:18;;;;;;;20.13;9.57;;;;;;;10.52;99.67;102813.72;4897406;28;20301;-69
2021/10/23 10:45:55;;;;;;;19.85;10.48;;;;;;;10.57;100.00;102813.69;4951442;28;20129;-69
2021/10/23 10:48:37;;;;;;;21.85;11.38;;;;;;;10.57;99.22;102808.34;4948035;28;20090;-69
2021/10/23 10:51:19;;;;;;;19.33;9.32;;;;;;;10.52;98.63;102808.38;4959163;28;20050;-68
2021/10/23 10:54:10;;;;;;;21.02;10.45;;;;;;;10.55;97.90;102813.69;4947521;28;20510;-70
2021/10/23 10:56:50;;;;;;;20.80;9.02;;;;;;;10.57;97.48;102817.25;4953601;28;20480;-70
2021/10/23 10:59:55;;;;;;;20.88;8.98;;;;;;;10.57;97.50;102813.69;4953619;28;20491;-70
2021/10/23 11:02:34;;;;;;;17.70;8.57;;;;;;;10.64;98.63;102803.00;4949817;28;20082;-70
2021/10/23 11:05:21;;;;;;;17.45;8.88;;;;;;;10.62;96.97;102806.56;4948701;28;20055;-71
2021/10/23 11:08:09;;;;;;;19.33;9.13;;;;;;;10.67;97.84;102806.56;4952603;28;20058;-70
2021/10/23 11:10:58;;;;;;;21.17;9.18;;;;;;;10.70;98.07;102803.91;4949324;28;20093;-70
2021/10/23 11:13:27;;;;;;;16.48;8.40;;;;;;;10.74;97.91;102798.53;4951900;28;20607;-71
2021/10/23 11:15:55;;;;;;;19.83;9.10;;;;;;;10.79;97.63;102802.06;4953996;28;20499;-70
2021/10/23 11:18:23;;;;;;;22.52;9.68;;;;;;;10.89;98.42;102797.63;4953179;28;20053;-70
2021/10/23 11:20:51;;;;;;;16.25;8.80;;;;;;;10.86;96.69;102794.94;4951613;28;20150;-71
2021/10/23 11:23:22;;;;;;;21.92;9.52;;;;;;;10.91;97.77;102795.81;4951684;28;20142;-71
2021/10/23 11:25:51;;;;;;;17.35;9.32;;;;;;;10.96;97.91;102794.03;4949261;28;20141;-71
2021/10/23 11:28:20;;;;;;;15.77;8.50;;;;;;;10.99;97.52;102791.34;4950367;28;20170;-71
2021/10/23 11:30:48;;;;;;;20.00;10.13;;;;;;;10.91;96.07;102793.16;4947974;28;20046;-71
2021/10/23 11:33:24;;;;;;;18.73;9.30;;;;;;;10.92;97.41;102797.63;4950752;28;20058;-71
2021/10/23 11:35:53;;;;;;;19.30;9.75;;;;;;;10.94;96.08;102802.94;4949588;28;20085;-71
2021/10/23 11:38:24;;;;;;;18.52;10.15;;;;;;;10.96;95.48;102794.03;4952735;28;20062;-71
2021/10/23 11:40:58;;;;;;;18.85;10.00;;;;;;;11.01;97.46;102797.56;4945387;28;20051;-71